Terminal Aerodrome Forecast
Issued by NWS

Home | Current Version | Previous Version | Text Only | Print | Product List | Glossary On
Versions: 1 2 3 4 5 6 7 8 9 10 11 12 13 14 15
511
FTUS42 KMLB 270949 AAA
TAFFPR
TAF AMD
KFPR 270949Z 2710/2806 00000KT 3SM BR FEW012 FEW035
      TEMPO 2710/2711 1SM BR
     FM271400 17011KT P6SM SCT035
     FM271700 14014G22KT P6SM FEW050=

USA.gov is the U.S. government's official web portal to all federal, state and local government web resources and services.